Time;durP1;ratioP1;P1;durP2;ratioP2;P2;SDS_P1;SDS_P2;PMS_P1;PMS_P2;Temp;Humidity;BMP_temperature;BMP_pressure;BME280_temperature;BME280_humidity;BME280_pressure;Samples;Min_cycle;Max_cycle;Signal;HPM_P1;HPM_P2
2024/01/06 00:03:29;;;;;;;11.73;10.50;;;8.60;99.90;;;;;;10365039;28;20232;-67
2024/01/06 00:08:33;;;;;;;10.93;9.80;;;8.60;99.90;;;;;;10363206;28;20640;-66
2024/01/06 00:13:36;;;;;;;12.27;10.00;;;8.60;99.90;;;;;;10364078;28;20734;-66
2024/01/06 00:18:41;;;;;;;11.23;10.03;;;8.60;99.90;;;;;;10361360;28;20716;-67
2024/01/06 00:23:45;;;;;;;12.90;10.77;;;8.60;99.90;;;;;;10361834;28;20193;-67
2024/01/06 00:28:49;;;;;;;12.17;10.17;;;8.60;99.90;;;;;;10364411;28;20232;-67
2024/01/06 00:33:54;;;;;;;12.20;10.90;;;8.60;99.90;;;;;;10364954;28;20236;-66
2024/01/06 00:38:58;;;;;;;12.03;10.70;;;8.60;99.90;;;;;;10361844;28;20225;-66
2024/01/06 00:44:01;;;;;;;12.07;10.77;;;8.60;99.90;;;;;;10360279;28;20260;-67
2024/01/06 00:49:06;;;;;;;12.20;10.40;;;8.60;99.90;;;;;;10351886;28;20291;-67
2024/01/06 00:54:10;;;;;;;11.90;10.60;;;8.60;99.90;;;;;;10356810;28;20213;-67
2024/01/06 00:59:13;;;;;;;12.20;10.43;;;8.60;99.90;;;;;;10361369;28;20275;-66
2024/01/06 01:04:18;;;;;;;15.00;11.90;;;8.60;99.90;;;;;;10357237;28;20205;-67
2024/01/06 01:09:22;;;;;;;15.90;12.23;;;8.60;99.90;;;;;;10357609;28;20298;-67
2024/01/06 01:14:26;;;;;;;15.50;11.87;;;8.60;99.90;;;;;;10362254;28;20201;-66
2024/01/06 01:19:30;;;;;;;16.73;13.30;;;8.60;99.90;;;;;;10360943;28;20271;-67
2024/01/06 01:24:34;;;;;;;15.00;13.03;;;8.60;99.90;;;;;;10355950;28;20204;-68
2024/01/06 01:29:38;;;;;;;15.60;13.20;;;8.60;99.90;;;;;;10353757;28;20319;-67
2024/01/06 01:34:43;;;;;;;15.43;13.00;;;8.60;99.90;;;;;;10359203;28;20290;-66
2024/01/06 01:39:46;;;;;;;18.07;13.80;;;8.50;99.90;;;;;;10361409;28;20279;-67
2024/01/06 01:44:50;;;;;;;19.57;14.47;;;8.50;99.90;;;;;;10367012;28;20209;-67
2024/01/06 01:49:56;;;;;;;17.97;14.20;;;8.50;99.90;;;;;;10363481;28;20338;-67
2024/01/06 01:55:00;;;;;;;19.07;14.37;;;8.60;99.90;;;;;;10357595;28;20288;-67
2024/01/06 02:00:04;;;;;;;20.03;16.33;;;8.60;99.90;;;;;;10364681;28;20290;-66
2024/01/06 02:05:10;;;;;;;18.27;15.37;;;8.60;99.90;;;;;;10363266;28;20205;-67
2024/01/06 02:10:13;;;;;;;19.77;15.60;;;8.60;99.90;;;;;;10360382;28;20310;-67
2024/01/06 02:15:17;;;;;;;19.07;15.63;;;8.60;99.90;;;;;;10363829;28;20707;-67
2024/01/06 02:20:24;;;;;;;20.30;15.47;;;8.60;99.90;;;;;;10363299;28;20201;-68
2024/01/06 02:25:29;;;;;;;20.67;16.23;;;8.70;99.90;;;;;;10363951;28;20703;-66
2024/01/06 02:30:33;;;;;;;23.30;16.63;;;8.60;99.90;;;;;;10364153;28;20323;-67
2024/01/06 02:35:37;;;;;;;20.40;16.30;;;8.70;99.90;;;;;;10354348;28;20249;-66
2024/01/06 02:40:42;;;;;;;23.47;17.03;;;8.60;99.90;;;;;;10363766;28;20323;-67
2024/01/06 02:45:46;;;;;;;22.97;17.30;;;8.60;99.90;;;;;;10359004;28;20301;-67
2024/01/06 02:50:50;;;;;;;22.33;17.53;;;8.60;99.90;;;;;;10361264;28;20252;-67
2024/01/06 02:55:55;;;;;;;20.80;16.57;;;8.60;99.90;;;;;;10360756;28;20221;-66
2024/01/06 03:00:59;;;;;;;20.30;16.27;;;8.60;99.90;;;;;;10361252;28;20225;-67
2024/01/06 03:06:02;;;;;;;16.40;13.03;;;8.60;99.90;;;;;;10359139;28;20662;-66
2024/01/06 03:11:07;;;;;;;16.67;12.73;;;8.60;99.90;;;;;;10363768;28;20631;-67
2024/01/06 03:16:12;;;;;;;17.40;13.53;;;8.60;99.90;;;;;;10363250;28;20224;-67
2024/01/06 03:21:19;;;;;;;16.57;13.30;;;8.60;99.90;;;;;;10356775;28;20290;-66
2024/01/06 03:26:24;;;;;;;16.67;12.67;;;8.50;99.90;;;;;;10359706;28;20238;-67
2024/01/06 03:31:28;;;;;;;16.60;12.20;;;8.50;99.90;;;;;;10359554;28;20279;-67
2024/01/06 03:36:31;;;;;;;16.63;12.13;;;8.50;99.90;;;;;;10359485;28;20225;-67
2024/01/06 03:41:36;;;;;;;16.73;12.80;;;8.50;99.90;;;;;;10354107;28;20193;-66
2024/01/06 03:46:40;;;;;;;16.43;12.33;;;8.50;99.90;;;;;;10358853;28;20262;-67
2024/01/06 03:51:43;;;;;;;16.40;12.17;;;8.50;99.90;;;;;;10361333;28;20322;-66
2024/01/06 03:56:48;;;;;;;16.67;12.30;;;8.50;99.90;;;;;;10358442;28;20224;-67
2024/01/06 04:01:52;;;;;;;17.57;11.47;;;8.50;99.90;;;;;;10358495;28;20228;-67
2024/01/06 04:06:55;;;;;;;14.07;10.83;;;8.50;99.90;;;;;;10357707;28;20648;-67
2024/01/06 04:12:01;;;;;;;13.87;10.63;;;8.40;99.90;;;;;;10361971;28;20255;-66
2024/01/06 04:17:05;;;;;;;12.67;9.60;;;8.40;99.90;;;;;;10359364;28;20229;-67
2024/01/06 04:22:08;;;;;;;14.20;10.27;;;8.30;99.90;;;;;;10355464;28;20296;-67
2024/01/06 04:27:13;;;;;;;14.40;10.67;;;8.30;99.90;;;;;;10357276;28;20252;-67
2024/01/06 04:32:17;;;;;;;12.60;10.03;;;8.20;99.90;;;;;;10358551;28;20290;-67
2024/01/06 04:37:21;;;;;;;12.57;9.77;;;8.20;99.90;;;;;;10356271;28;20252;-67
2024/01/06 04:42:26;;;;;;;14.10;9.47;;;8.20;99.90;;;;;;10354050;28;20228;-67
2024/01/06 04:47:30;;;;;;;12.23;9.57;;;8.20;99.90;;;;;;10353453;28;20310;-67
2024/01/06 04:52:34;;;;;;;15.60;10.37;;;8.20;99.90;;;;;;10358753;28;20612;-67
2024/01/06 04:57:39;;;;;;;14.00;10.63;;;8.20;99.90;;;;;;10357242;28;20588;-67
2024/01/06 05:02:42;;;;;;;15.40;11.37;;;8.20;99.90;;;;;;10356943;28;20228;-67
2024/01/06 05:07:46;;;;;;;15.23;11.23;;;8.10;99.90;;;;;;10354525;28;20639;-67
2024/01/06 05:12:51;;;;;;;14.47;10.63;;;8.10;99.90;;;;;;10353469;28;20201;-66
2024/01/06 05:17:55;;;;;;;15.17;11.80;;;8.10;99.90;;;;;;10363102;28;20298;-66
2024/01/06 05:22:59;;;;;;;15.40;11.03;;;8.10;99.90;;;;;;10359492;28;20652;-66
2024/01/06 05:28:04;;;;;;;15.53;11.27;;;8.10;99.90;;;;;;10360183;28;20746;-67
2024/01/06 05:33:12;;;;;;;15.30;11.17;;;8.10;99.90;;;;;;10366182;28;20205;-66
2024/01/06 05:38:17;;;;;;;14.87;10.90;;;8.10;99.90;;;;;;10365787;28;20224;-66
2024/01/06 05:43:22;;;;;;;14.77;10.60;;;8.00;99.90;;;;;;10367474;28;20312;-66
2024/01/06 05:48:26;;;;;;;14.63;10.97;;;8.00;99.90;;;;;;10364587;28;20321;-66
2024/01/06 05:53:30;;;;;;;14.47;10.67;;;7.90;99.90;;;;;;10367823;28;20267;-66
2024/01/06 05:58:35;;;;;;;11.90;9.03;;;7.80;99.90;;;;;;10370461;28;20217;-66
2024/01/06 06:03:38;;;;;;;14.03;10.30;;;7.90;99.90;;;;;;10368245;28;20205;-66
2024/01/06 06:08:42;;;;;;;13.13;9.43;;;7.90;99.90;;;;;;10366569;28;20912;-70
2024/01/06 06:13:47;;;;;;;14.23;9.97;;;7.90;99.90;;;;;;10372130;28;20208;-67
2024/01/06 06:18:51;;;;;;;13.73;10.43;;;7.80;99.90;;;;;;10366430;28;20252;-66
2024/01/06 06:23:55;;;;;;;16.50;12.47;;;7.80;99.90;;;;;;10363902;28;20293;-67
2024/01/06 06:29:00;;;;;;;16.50;12.27;;;7.80;99.90;;;;;;10362203;28;20216;-66
2024/01/06 06:34:03;;;;;;;15.70;11.47;;;7.80;99.90;;;;;;10360681;28;20237;-67
2024/01/06 06:39:11;;;;;;;16.07;12.03;;;7.80;99.90;;;;;;10361273;28;20253;-67
2024/01/06 06:44:16;;;;;;;16.73;12.20;;;7.70;99.90;;;;;;10360062;28;20232;-67
2024/01/06 06:49:20;;;;;;;16.83;12.60;;;7.60;99.90;;;;;;10362649;28;20252;-68
2024/01/06 06:54:23;;;;;;;17.17;11.77;;;7.60;99.90;;;;;;10359751;28;20754;-67
2024/01/06 06:59:28;;;;;;;17.77;13.17;;;7.60;99.90;;;;;;10356197;28;20308;-66
2024/01/06 07:04:32;;;;;;;15.50;11.47;;;7.70;99.90;;;;;;10360292;28;20251;-67
2024/01/06 07:09:35;;;;;;;16.13;11.13;;;7.70;99.90;;;;;;10355096;28;20266;-67
2024/01/06 07:14:40;;;;;;;15.53;11.97;;;7.70;99.90;;;;;;10357312;28;20279;-67
2024/01/06 07:24:28;;;;;;;20.47;14.07;;;7.70;99.90;;;;;;10434422;27;20631;-68
2024/01/06 07:29:32;;;;;;;19.60;14.07;;;7.60;99.90;;;;;;10426394;28;20269;-68
2024/01/06 07:34:35;;;;;;;20.90;14.00;;;7.60;99.90;;;;;;10424200;28;20227;-68
2024/01/06 07:39:41;;;;;;;20.30;14.07;;;7.60;99.90;;;;;;10422483;28;20280;-66
2024/01/06 07:44:44;;;;;;;20.73;13.60;;;7.60;99.90;;;;;;10419260;28;20300;-67
2024/01/06 07:49:48;;;;;;;20.63;14.33;;;7.50;99.90;;;;;;10422647;28;20217;-67
2024/01/06 07:54:53;;;;;;;21.00;13.73;;;7.50;99.90;;;;;;10419797;28;20722;-67
2024/01/06 07:59:57;;;;;;;20.30;14.07;;;7.40;99.90;;;;;;10399870;28;20224;-67
2024/01/06 08:05:06;;;;;;;19.75;13.80;;;7.30;99.90;;;;;;10395534;28;20478;-64
2024/01/06 08:10:11;;;;;;;18.53;13.43;;;7.30;99.90;;;;;;10399568;28;20204;-65
2024/01/06 08:15:15;;;;;;;18.30;13.00;;;7.30;99.90;;;;;;10401970;28;20212;-66
2024/01/06 08:20:19;;;;;;;19.40;13.33;;;7.30;99.90;;;;;;10397067;28;20231;-65
2024/01/06 08:25:24;;;;;;;19.47;13.40;;;7.30;99.90;;;;;;10404356;28;20231;-66
2024/01/06 08:30:27;;;;;;;19.53;13.60;;;7.30;99.90;;;;;;10442523;28;20200;-66
2024/01/06 08:35:31;;;;;;;23.03;14.27;;;7.30;99.90;;;;;;10413390;28;20297;-66
2024/01/06 08:40:36;;;;;;;21.40;14.63;;;7.30;99.90;;;;;;10408179;28;20227;-66
2024/01/06 08:45:40;;;;;;;18.50;12.67;;;7.30;99.90;;;;;;10408666;28;20246;-66
2024/01/06 08:50:45;;;;;;;19.30;12.13;;;7.30;99.90;;;;;;10410857;28;20209;-65
2024/01/06 08:55:50;;;;;;;18.17;14.93;;;7.20;99.90;;;;;;10412001;28;20526;-66
2024/01/06 09:00:54;;;;;;;17.23;11.57;;;7.30;99.90;;;;;;10422234;28;20631;-66
2024/01/06 09:05:58;;;;;;;16.52;12.98;;;7.30;99.90;;;;;;10422578;28;20508;-65
2024/01/06 09:11:03;;;;;;;14.87;11.07;;;7.40;99.90;;;;;;10405888;28;20687;-65
2024/01/06 09:16:06;;;;;;;15.90;10.30;;;7.40;99.90;;;;;;10407452;28;20312;-64
2024/01/06 09:21:10;;;;;;;12.80;9.33;;;7.30;99.90;;;;;;10413283;28;20274;-64
2024/01/06 09:26:16;;;;;;;10.67;7.67;;;7.30;99.90;;;;;;10412889;28;20228;-65
2024/01/06 09:31:19;;;;;;;12.60;8.30;;;7.30;99.90;;;;;;10421639;28;20666;-65
2024/01/06 09:36:23;;;;;;;11.13;7.33;;;7.20;99.90;;;;;;10429609;28;20223;-65
2024/01/06 09:41:28;;;;;;;10.43;7.40;;;7.20;99.70;;;;;;10411767;28;20251;-64
2024/01/06 09:46:33;;;;;;;10.60;7.50;;;7.20;99.50;;;;;;10415666;28;20261;-62
2024/01/06 09:51:38;;;;;;;10.30;7.83;;;7.20;99.90;;;;;;10413052;28;20460;-70
2024/01/06 09:56:47;;;;;;;8.13;6.30;;;7.20;99.40;;;;;;10422655;28;20207;-67
2024/01/06 10:01:52;;;;;;;10.00;8.73;;;7.10;99.10;;;;;;10437385;28;20561;-66
2024/01/06 10:06:56;;;;;;;9.10;7.53;;;7.30;98.30;;;;;;10434352;28;20224;-66
2024/01/06 10:12:01;;;;;;;8.20;6.77;;;7.20;98.90;;;;;;10412109;28;20257;-66
2024/01/06 10:17:07;;;;;;;8.40;7.00;;;7.10;98.70;;;;;;10419030;28;20233;-65
2024/01/06 10:22:11;;;;;;;10.43;7.13;;;7.00;99.00;;;;;;10427200;28;20250;-66
2024/01/06 10:27:17;;;;;;;9.57;7.27;;;6.80;98.60;;;;;;10437198;28;20220;-66
2024/01/06 10:32:21;;;;;;;11.10;8.43;;;6.90;98.90;;;;;;10434544;28;20273;-66
2024/01/06 10:37:25;;;;;;;13.80;9.07;;;6.90;98.90;;;;;;10415179;28;20227;-66
2024/01/06 10:42:30;;;;;;;12.20;8.73;;;6.90;98.80;;;;;;10406425;28;20697;-66
2024/01/06 10:47:35;;;;;;;13.43;9.40;;;6.90;98.80;;;;;;10415077;28;20625;-66
2024/01/06 10:52:39;;;;;;;15.20;11.50;;;7.00;98.80;;;;;;10408232;28;20200;-66
2024/01/06 10:57:45;;;;;;;15.13;11.50;;;6.90;99.10;;;;;;10409086;28;20785;-66
2024/01/06 11:02:52;;;;;;;16.60;11.63;;;6.90;99.00;;;;;;10401875;28;20277;-65
2024/01/06 11:08:00;;;;;;;16.43;11.47;;;7.00;99.10;;;;;;10406924;28;20231;-66
2024/01/06 11:13:10;;;;;;;17.07;11.73;;;6.90;98.80;;;;;;10409079;28;20200;-66
2024/01/06 11:18:34;;;;;;;18.20;12.37;;;6.80;98.40;;;;;;10430193;28;20568;-66
2024/01/06 11:23:38;;;;;;;15.37;11.53;;;6.70;98.70;;;;;;10438926;28;20233;-64
2024/01/06 11:28:47;;;;;;;13.97;10.23;;;6.70;98.90;;;;;;10442858;28;20229;-64
2024/01/06 11:33:52;;;;;;;13.40;9.37;;;6.70;98.70;;;;;;10439118;28;20217;-66
2024/01/06 11:38:56;;;;;;;13.23;9.40;;;6.70;98.80;;;;;;10433000;28;20223;-65
2024/01/06 11:44:01;;;;;;;11.80;9.10;;;6.70;98.50;;;;;;10437358;28;20277;-66
2024/01/06 11:49:05;;;;;;;14.43;10.90;;;6.70;98.90;;;;;;10442198;28;20629;-66
2024/01/06 11:54:11;;;;;;;13.80;10.50;;;6.70;98.50;;;;;;10441126;28;20200;-66
2024/01/06 11:59:16;;;;;;;16.50;11.20;;;6.70;98.40;;;;;;10443270;28;20251;-66
2024/01/06 12:04:22;;;;;;;17.03;11.87;;;6.70;98.30;;;;;;10439073;28;20219;-65
2024/01/06 12:09:26;;;;;;;17.67;11.40;;;6.70;98.50;;;;;;10416768;28;20219;-66
2024/01/06 12:14:32;;;;;;;18.03;12.30;;;6.70;98.20;;;;;;10413042;28;20559;-64
2024/01/06 12:19:35;;;;;;;19.60;13.10;;;6.70;98.30;;;;;;10415358;28;20215;-64
2024/01/06 12:24:43;;;;;;;18.80;13.40;;;6.70;98.20;;;;;;10416409;28;20230;-64
2024/01/06 12:29:48;;;;;;;19.57;12.90;;;6.60;98.20;;;;;;10412786;28;20216;-66
2024/01/06 12:34:52;;;;;;;18.57;13.90;;;6.70;98.40;;;;;;10413623;28;20203;-64
2024/01/06 12:39:58;;;;;;;17.57;12.80;;;6.70;98.30;;;;;;10413237;28;20792;-64
2024/01/06 12:45:04;;;;;;;21.17;13.20;;;6.60;98.20;;;;;;10409553;28;20255;-64
2024/01/06 12:50:08;;;;;;;19.80;12.73;;;6.60;98.30;;;;;;10430614;28;20265;-65
2024/01/06 12:55:12;;;;;;;18.80;13.30;;;6.60;98.50;;;;;;10441457;28;20558;-64
2024/01/06 13:00:19;;;;;;;19.20;12.57;;;6.60;98.50;;;;;;10430897;28;20208;-64
2024/01/06 13:05:22;;;;;;;16.83;12.73;;;6.60;98.20;;;;;;10432871;28;20249;-63
2024/01/06 13:10:26;;;;;;;15.40;10.67;;;6.50;98.30;;;;;;10427267;28;20262;-63
2024/01/06 13:15:31;;;;;;;13.77;10.13;;;6.50;98.30;;;;;;10432272;28;20215;-65
2024/01/06 13:20:37;;;;;;;18.30;10.20;;;6.50;98.20;;;;;;10409442;28;20233;-65
2024/01/06 13:25:40;;;;;;;15.13;10.20;;;6.40;98.20;;;;;;10412655;28;20231;-65
2024/01/06 13:30:46;;;;;;;14.40;10.60;;;6.40;98.40;;;;;;10412430;28;20231;-67
2024/01/06 13:35:50;;;;;;;16.58;12.98;;;6.40;98.20;;;;;;10409403;28;20442;-65
2024/01/06 13:40:54;;;;;;;14.93;10.60;;;6.40;98.20;;;;;;10409785;28;20211;-67
2024/01/06 13:45:59;;;;;;;15.50;10.83;;;6.40;98.20;;;;;;10404052;28;20209;-64
2024/01/06 13:51:03;;;;;;;14.30;11.63;;;6.40;98.20;;;;;;10410550;28;20214;-64
2024/01/06 13:56:07;;;;;;;16.27;11.07;;;6.40;98.10;;;;;;10411273;28;20230;-65
2024/01/06 14:01:12;;;;;;;17.17;12.03;;;6.30;97.90;;;;;;10404886;28;20208;-67
2024/01/06 14:06:17;;;;;;;18.83;13.00;;;6.20;98.00;;;;;;10412019;28;20863;-65
2024/01/06 14:11:21;;;;;;;18.63;12.67;;;6.10;98.10;;;;;;10409028;28;20230;-64
2024/01/06 14:16:26;;;;;;;17.73;12.13;;;6.00;98.60;;;;;;10428691;28;20759;-64
2024/01/06 14:21:29;;;;;;;18.37;12.17;;;6.00;98.50;;;;;;10444762;28;20229;-65
2024/01/06 14:26:33;;;;;;;17.93;11.77;;;6.00;98.20;;;;;;10430019;28;20231;-65
2024/01/06 14:31:38;;;;;;;17.60;11.77;;;5.90;97.80;;;;;;10407423;28;20203;-65
2024/01/06 14:36:47;;;;;;;17.23;12.27;;;5.90;98.20;;;;;;10417084;28;20219;-65
2024/01/06 14:41:51;;;;;;;18.17;11.80;;;5.90;98.30;;;;;;10442493;28;20206;-65
2024/01/06 14:46:57;;;;;;;18.67;12.93;;;5.90;98.20;;;;;;10419443;28;20222;-65
2024/01/06 14:52:02;;;;;;;14.07;10.40;;;6.00;98.10;;;;;;10407039;28;20205;-65
2024/01/06 14:57:05;;;;;;;16.00;10.73;;;6.00;98.00;;;;;;10407304;28;20272;-65
2024/01/06 15:08:53;;;;;;;20.87;12.27;;;6.10;97.80;;;;;;10410317;28;20238;-66
2024/01/06 15:14:31;;;;;;;21.60;13.60;;;6.10;97.70;;;;;;10407594;28;20682;-66
2024/01/06 15:19:55;;;;;;;19.27;13.70;;;6.20;98.30;;;;;;10407885;28;20752;-66
2024/01/06 15:25:05;;;;;;;16.60;12.07;;;6.20;97.70;;;;;;10407342;28;20323;-66
2024/01/06 15:30:09;;;;;;;17.33;12.17;;;6.20;97.70;;;;;;10406695;28;20297;-66
2024/01/06 15:35:13;;;;;;;17.30;12.07;;;6.10;97.60;;;;;;10421561;28;20263;-66
2024/01/06 15:40:18;;;;;;;18.63;12.50;;;6.10;97.80;;;;;;10422470;28;20211;-67
2024/01/06 15:45:22;;;;;;;17.47;13.57;;;6.10;97.80;;;;;;10431944;28;21030;-67
2024/01/06 15:50:25;;;;;;;14.33;9.83;;;6.10;97.80;;;;;;10431515;28;20203;-67
2024/01/06 15:55:30;;;;;;;14.60;12.67;;;6.10;97.80;;;;;;10446274;28;20441;-66
2024/01/06 16:00:34;;;;;;;11.17;8.97;;;6.20;97.50;;;;;;10452464;28;20269;-67
2024/01/06 16:05:40;;;;;;;12.03;8.47;;;6.20;97.50;;;;;;10448731;28;20221;-67
2024/01/06 16:10:45;;;;;;;11.73;7.40;;;6.20;97.30;;;;;;10456909;28;20645;-67
2024/01/06 16:15:49;;;;;;;12.23;8.43;;;6.20;97.40;;;;;;10451242;28;20222;-67
2024/01/06 16:20:54;;;;;;;9.83;7.43;;;6.10;97.40;;;;;;10425534;28;20557;-65
2024/01/06 16:25:59;;;;;;;13.77;11.30;;;6.10;97.30;;;;;;10423906;28;20475;-67
2024/01/06 16:31:03;;;;;;;12.77;7.67;;;6.30;97.00;;;;;;10427306;28;20207;-67
2024/01/06 16:36:10;;;;;;;15.17;11.07;;;6.30;97.10;;;;;;10430506;28;20250;-67
2024/01/06 16:41:15;;;;;;;11.00;8.27;;;6.20;97.00;;;;;;10435063;28;20755;-66
2024/01/06 16:46:19;;;;;;;10.47;7.97;;;6.10;97.10;;;;;;10429714;28;20250;-65
2024/01/06 16:51:22;;;;;;;10.17;7.23;;;6.10;97.40;;;;;;10425749;28;20207;-66
2024/01/06 16:56:27;;;;;;;11.87;8.43;;;6.10;97.30;;;;;;10418160;28;20330;-66
2024/01/06 17:01:31;;;;;;;12.57;8.57;;;6.10;97.10;;;;;;10418595;28;20700;-69
2024/01/06 17:06:35;;;;;;;12.60;8.43;;;6.00;97.20;;;;;;10425944;28;20261;-69
2024/01/06 17:11:40;;;;;;;11.73;8.63;;;6.00;97.40;;;;;;10426591;28;20307;-68
2024/01/06 17:16:43;;;;;;;12.60;9.33;;;6.00;97.50;;;;;;10417785;28;21242;-66
2024/01/06 17:21:47;;;;;;;10.07;7.97;;;6.00;97.50;;;;;;10419595;28;20232;-67
2024/01/06 17:26:52;;;;;;;10.63;8.57;;;6.00;97.50;;;;;;10420556;28;20266;-68
2024/01/06 17:31:56;;;;;;;10.83;8.50;;;6.00;97.30;;;;;;10415453;28;20249;-69
2024/01/06 17:36:59;;;;;;;14.60;11.27;;;6.00;97.30;;;;;;10421602;28;20268;-67
2024/01/06 17:42:05;;;;;;;15.73;12.43;;;6.00;97.30;;;;;;10419474;28;20675;-66
2024/01/06 17:47:09;;;;;;;12.70;10.37;;;6.00;97.30;;;;;;10424743;28;20243;-67
2024/01/06 17:52:13;;;;;;;14.43;11.20;;;6.00;97.60;;;;;;10412999;28;20289;-68
2024/01/06 17:57:19;;;;;;;16.37;11.37;;;6.00;97.50;;;;;;10418065;28;20316;-68
2024/01/06 18:02:22;;;;;;;15.27;10.90;;;6.00;97.60;;;;;;10418086;28;20207;-67
2024/01/06 18:07:29;;;;;;;13.97;10.97;;;6.00;97.60;;;;;;10423341;28;20330;-67
2024/01/06 18:12:34;;;;;;;13.33;9.87;;;6.00;97.50;;;;;;10423009;28;20242;-68
2024/01/06 18:17:38;;;;;;;13.00;9.80;;;6.00;97.50;;;;;;10419082;28;20304;-67
2024/01/06 18:22:43;;;;;;;13.80;11.20;;;6.00;97.30;;;;;;10427920;28;20214;-66
2024/01/06 18:27:48;;;;;;;18.90;12.53;;;6.00;97.10;;;;;;10417142;28;20224;-68
2024/01/06 18:32:52;;;;;;;19.03;14.10;;;5.90;97.20;;;;;;10411858;28;20203;-66
2024/01/06 18:37:56;;;;;;;16.27;11.83;;;5.90;97.30;;;;;;10421770;28;20343;-67
2024/01/06 18:43:01;;;;;;;13.83;10.90;;;5.90;97.30;;;;;;10417973;28;20206;-69
2024/01/06 18:48:05;;;;;;;15.00;11.37;;;6.00;97.30;;;;;;10428717;28;20226;-66
2024/01/06 18:53:08;;;;;;;14.33;10.80;;;5.90;97.30;;;;;;10422483;28;20202;-68
2024/01/06 18:58:13;;;;;;;14.60;11.23;;;5.90;97.20;;;;;;10413171;28;20218;-68
2024/01/06 19:03:17;;;;;;;15.57;11.23;;;5.90;97.30;;;;;;10411223;28;20740;-68
2024/01/06 19:08:21;;;;;;;15.07;12.10;;;5.90;97.40;;;;;;10411305;28;20768;-68
2024/01/06 19:13:26;;;;;;;18.97;12.00;;;5.90;97.30;;;;;;10415538;28;20834;-68
2024/01/06 19:18:30;;;;;;;16.07;12.13;;;5.90;97.30;;;;;;10409977;28;20218;-69
2024/01/06 19:23:33;;;;;;;12.80;10.43;;;5.90;97.40;;;;;;10418541;28;20271;-68
2024/01/06 19:28:38;;;;;;;15.13;10.40;;;5.90;97.30;;;;;;10414958;28;20775;-69
2024/01/06 19:33:42;;;;;;;14.37;11.00;;;5.90;97.30;;;;;;10411477;28;20238;-69
2024/01/06 19:38:45;;;;;;;15.23;11.53;;;5.90;97.50;;;;;;10419677;28;20685;-68
2024/01/06 19:43:50;;;;;;;14.03;11.33;;;5.90;97.10;;;;;;10416690;28;20207;-68
2024/01/06 19:48:54;;;;;;;13.97;10.83;;;5.90;97.20;;;;;;10412994;28;20296;-67
2024/01/06 19:54:01;;;;;;;16.33;11.97;;;5.90;97.10;;;;;;10419316;28;20206;-68
2024/01/06 19:59:07;;;;;;;16.30;12.33;;;5.90;97.20;;;;;;10406976;28;20277;-68
2024/01/06 20:04:10;;;;;;;15.93;12.67;;;5.90;97.20;;;;;;10418819;28;20198;-67
2024/01/06 20:09:14;;;;;;;16.50;11.90;;;6.00;97.40;;;;;;10413109;28;21120;-67
2024/01/06 20:14:19;;;;;;;17.47;12.97;;;6.00;97.40;;;;;;10422551;28;20626;-67
2024/01/06 20:19:23;;;;;;;16.87;13.07;;;5.90;97.30;;;;;;10410347;28;20288;-68
2024/01/06 20:24:27;;;;;;;20.13;14.13;;;6.00;97.40;;;;;;10414451;28;20732;-68
2024/01/06 20:29:32;;;;;;;17.67;12.97;;;5.90;97.80;;;;;;10415256;28;20333;-69
2024/01/06 20:34:37;;;;;;;18.63;13.07;;;5.90;97.70;;;;;;10425374;28;20258;-68
2024/01/06 20:39:41;;;;;;;19.20;13.10;;;5.90;97.60;;;;;;10424497;28;20254;-68
2024/01/06 20:44:46;;;;;;;17.47;12.73;;;6.00;97.70;;;;;;10423705;28;20265;-68
2024/01/06 20:49:50;;;;;;;16.07;11.60;;;5.90;97.50;;;;;;10415214;28;20254;-67
2024/01/06 20:54:54;;;;;;;15.67;11.67;;;5.90;97.60;;;;;;10422577;28;20295;-68
2024/01/06 20:59:59;;;;;;;15.77;10.43;;;5.90;97.50;;;;;;10426972;28;20246;-67
2024/01/06 21:05:04;;;;;;;14.63;10.50;;;5.90;97.50;;;;;;10416881;28;20207;-68
2024/01/06 21:10:10;;;;;;;14.67;11.10;;;5.90;97.50;;;;;;10422266;28;20211;-69
2024/01/06 21:15:15;;;;;;;15.17;10.90;;;5.90;97.50;;;;;;10421343;28;20207;-69
2024/01/06 21:20:21;;;;;;;13.70;11.17;;;5.90;97.30;;;;;;10420387;28;20235;-67
2024/01/06 21:25:24;;;;;;;14.73;11.40;;;5.80;97.30;;;;;;10418758;28;20290;-68
2024/01/06 21:30:29;;;;;;;15.70;11.93;;;5.80;97.40;;;;;;10417885;28;20261;-69
2024/01/06 21:35:33;;;;;;;15.10;11.63;;;5.80;97.40;;;;;;10417890;28;20280;-68
2024/01/06 21:40:36;;;;;;;14.53;11.90;;;5.80;97.40;;;;;;10424613;28;20204;-67
2024/01/06 21:45:41;;;;;;;17.07;12.03;;;5.80;97.40;;;;;;10416136;28;20270;-69
2024/01/06 21:50:45;;;;;;;14.53;11.70;;;5.80;97.50;;;;;;10419393;28;20230;-70
2024/01/06 21:55:49;;;;;;;13.93;11.10;;;5.80;97.40;;;;;;10416816;28;20606;-69
2024/01/06 22:00:56;;;;;;;15.00;11.30;;;5.80;97.40;;;;;;10423106;28;20210;-68
2024/01/06 22:06:00;;;;;;;14.47;11.50;;;5.80;97.40;;;;;;10420209;28;20271;-68
2024/01/06 22:11:04;;;;;;;12.50;10.47;;;5.90;97.50;;;;;;10422644;28;20738;-68
2024/01/06 22:16:09;;;;;;;12.00;9.67;;;5.80;97.30;;;;;;10421789;28;20268;-68
2024/01/06 22:21:13;;;;;;;12.97;10.20;;;5.80;97.40;;;;;;10423385;28;20262;-68
2024/01/06 22:26:16;;;;;;;13.97;10.50;;;5.80;97.60;;;;;;10418890;28;20279;-69
2024/01/06 22:31:21;;;;;;;14.57;10.50;;;5.70;97.50;;;;;;10419595;28;20258;-68
2024/01/06 22:36:25;;;;;;;12.93;9.53;;;5.70;97.50;;;;;;10419410;28;20693;-69
2024/01/06 22:41:28;;;;;;;13.00;9.90;;;5.80;97.50;;;;;;10416499;28;20202;-68
2024/01/06 22:46:33;;;;;;;12.13;9.40;;;5.80;97.30;;;;;;10427092;28;20840;-69
2024/01/06 22:51:37;;;;;;;10.67;8.87;;;5.80;97.30;;;;;;10417500;28;20208;-67
2024/01/06 22:56:40;;;;;;;11.57;9.67;;;5.80;97.20;;;;;;10419187;28;20218;-68
2024/01/06 23:01:45;;;;;;;12.60;10.20;;;5.80;97.30;;;;;;10421429;28;20664;-69
2024/01/06 23:06:49;;;;;;;13.10;10.40;;;5.80;97.40;;;;;;10422973;28;20283;-67
2024/01/06 23:11:52;;;;;;;12.83;11.10;;;5.70;97.20;;;;;;10416012;28;20273;-68
2024/01/06 23:16:57;;;;;;;14.00;11.37;;;5.70;97.20;;;;;;10427873;28;20253;-68
2024/01/06 23:22:01;;;;;;;15.57;11.27;;;5.70;97.10;;;;;;10416057;28;20201;-67
2024/01/06 23:27:05;;;;;;;13.93;11.63;;;5.80;96.90;;;;;;10414802;28;20257;-68
2024/01/06 23:32:09;;;;;;;15.20;11.80;;;5.80;96.90;;;;;;10417019;28;20202;-66
2024/01/06 23:37:13;;;;;;;15.27;11.57;;;5.70;97.50;;;;;;10413367;28;20218;-68
2024/01/06 23:42:17;;;;;;;13.77;10.97;;;5.70;97.10;;;;;;10406356;28;20737;-68
2024/01/06 23:47:22;;;;;;;14.27;11.67;;;5.70;97.00;;;;;;10417565;28;20292;-67
2024/01/06 23:52:27;;;;;;;13.87;11.07;;;5.80;96.90;;;;;;10414645;28;20202;-67
2024/01/06 23:57:30;;;;;;;13.77;11.23;;;5.80;97.00;;;;;;10415382;28;20215;-67
